Time;durP1;ratioP1;P1;durP2;ratioP2;P2;SDS_P1;SDS_P2;PMS_P1;PMS_P2;Temp;Humidity;BMP_temperature;BMP_pressure;BME280_temperature;BME280_humidity;BME280_pressure;Samples;Min_cycle;Max_cycle;Signal;HPM_P1;HPM_P2
2024/01/12 00:00:20;;;;;;;34.88;20.58;;;;;;;2.18;86.23;103127.44;3612907;39;20058;-68
2024/01/12 00:02:46;;;;;;;34.28;19.83;;;;;;;1.62;87.48;103039.38;3612998;39;20048;-68
2024/01/12 00:05:11;;;;;;;36.80;21.45;;;;;;;2.11;86.40;103115.88;3598784;39;20097;-69
2024/01/12 00:07:37;;;;;;;39.40;20.00;;;;;;;2.21;87.29;103135.44;3610052;39;20086;-68
2024/01/12 00:10:04;;;;;;;39.65;20.48;;;;;;;2.20;87.77;103129.25;3614232;39;20060;-67
2024/01/12 00:12:29;;;;;;;37.50;22.02;;;;;;;2.22;87.49;103131.91;3607691;39;20434;-68
2024/01/12 00:14:55;;;;;;;37.17;21.08;;;;;;;2.24;87.68;103135.47;3611149;39;20058;-68
2024/01/12 00:17:21;;;;;;;37.95;21.50;;;;;;;2.24;86.54;103146.09;3609641;39;20139;-68
2024/01/12 00:19:48;;;;;;;38.28;20.38;;;;;;;2.25;87.17;103138.16;3611417;39;20440;-68
2024/01/12 00:22:13;;;;;;;38.55;21.15;;;;;;;2.25;86.82;103137.25;3601142;39;20087;-67
2024/01/12 00:24:39;;;;;;;35.15;19.88;;;;;;;2.23;86.98;103133.72;3607013;39;20102;-68
2024/01/12 00:27:05;;;;;;;36.95;20.92;;;;;;;2.13;87.45;103115.94;3608585;39;20058;-69
2024/01/12 00:29:31;;;;;;;33.85;18.75;;;;;;;2.23;87.23;103134.59;3610624;39;20157;-68
2024/01/12 00:31:56;;;;;;;36.38;20.27;;;;;;;2.17;86.14;103120.38;3609225;39;20399;-67
2024/01/12 00:34:23;;;;;;;35.13;20.15;;;;;;;1.97;86.57;103099.84;3610801;39;20073;-67
2024/01/12 00:36:49;;;;;;;37.65;20.48;;;;;;;2.13;86.93;103118.56;3608341;39;20106;-68
2024/01/12 00:39:18;;;;;;;38.42;20.17;;;;;;;2.07;87.18;103109.66;3611179;39;20444;-67
2024/01/12 00:41:43;;;;;;;37.35;20.23;;;;;;;2.22;86.70;103139.88;3610591;39;20078;-68
2024/01/12 00:44:09;;;;;;;39.15;20.60;;;;;;;2.21;86.73;103135.44;3610467;39;20050;-68
2024/01/12 00:46:35;;;;;;;40.88;21.95;;;;;;;2.21;87.34;103135.44;3609733;39;20069;-68
2024/01/12 00:49:00;;;;;;;37.00;21.00;;;;;;;2.21;86.73;103130.13;3609295;39;20304;-68
2024/01/12 00:51:26;;;;;;;36.15;20.85;;;;;;;2.21;87.16;103140.75;3611533;39;20046;-67
2024/01/12 00:53:52;;;;;;;36.40;21.83;;;;;;;2.23;86.46;103142.56;3610900;39;20039;-69
2024/01/12 00:56:17;;;;;;;38.83;20.55;;;;;;;2.23;86.69;103142.56;3610114;39;20071;-68
2024/01/12 00:58:43;;;;;;;41.90;22.17;;;;;;;2.24;86.74;103140.78;3605389;39;20079;-69
2024/01/12 01:01:12;;;;;;;37.53;20.98;;;;;;;2.26;86.68;103144.34;3608538;39;20392;-68
2024/01/12 01:03:38;;;;;;;40.25;21.48;;;;;;;2.23;86.27;103144.31;3608214;39;20442;-68
2024/01/12 01:06:05;;;;;;;40.30;22.67;;;;;;;2.24;86.98;103143.44;3609522;39;20091;-68
2024/01/12 01:08:31;;;;;;;37.63;21.40;;;;;;;2.23;85.93;103149.63;3609433;39;20043;-68
2024/01/12 01:10:57;;;;;;;38.50;21.92;;;;;;;2.23;87.65;103145.19;3610719;39;20414;-67
2024/01/12 01:13:22;;;;;;;41.08;22.15;;;;;;;2.23;87.00;103139.00;3608679;39;20066;-69
2024/01/12 01:15:48;;;;;;;41.30;21.30;;;;;;;2.23;87.36;103134.59;3605842;39;20059;-68
2024/01/12 01:18:15;;;;;;;40.60;22.30;;;;;;;2.22;86.75;103143.44;3597630;39;20043;-68
2024/01/12 01:20:41;;;;;;;38.05;21.88;;;;;;;2.18;87.13;103136.28;3605630;39;20351;-68
2024/01/12 01:23:06;;;;;;;41.08;21.35;;;;;;;2.23;86.07;103144.31;3609144;39;20132;-68
2024/01/12 01:25:33;;;;;;;37.33;22.75;;;;;;;2.19;87.42;103145.13;3609608;39;20335;-68
2024/01/12 01:28:00;;;;;;;37.33;21.48;;;;;;;2.23;86.79;103153.16;3609170;39;20138;-68
2024/01/12 01:30:26;;;;;;;46.13;22.45;;;;;;;2.17;87.33;103154.88;3606546;39;20125;-68
2024/01/12 01:32:51;;;;;;;40.33;21.67;;;;;;;1.86;87.31;103098.81;3606159;39;20055;-68
2024/01/12 01:35:17;;;;;;;39.47;22.10;;;;;;;2.20;86.47;103161.09;3606029;39;20062;-68
2024/01/12 01:37:43;;;;;;;38.75;22.00;;;;;;;2.17;86.79;103154.88;3606523;39;20063;-68
2024/01/12 01:40:09;;;;;;;45.00;22.88;;;;;;;2.22;87.41;103174.34;3609827;39;20043;-68
2024/01/12 01:42:35;;;;;;;39.70;21.98;;;;;;;2.23;86.94;103177.06;3607234;39;20042;-68
2024/01/12 01:45:04;;;;;;;38.38;21.95;;;;;;;2.11;87.33;103160.09;3606657;39;20055;-67
2024/01/12 01:47:31;;;;;;;42.90;22.00;;;;;;;2.26;86.82;103190.34;3607072;39;20083;-68
2024/01/12 01:49:58;;;;;;;42.45;21.80;;;;;;;2.27;87.64;103188.56;3610142;39;20395;-68
2024/01/12 01:52:27;;;;;;;39.05;21.83;;;;;;;2.26;86.96;103186.81;3610425;39;20299;-67
2024/01/12 01:54:56;;;;;;;39.25;22.15;;;;;;;2.29;87.74;103178.88;3610665;39;20087;-68
2024/01/12 01:57:26;;;;;;;38.70;21.67;;;;;;;2.26;87.47;103173.53;3607233;39;20066;-67
2024/01/12 01:59:53;;;;;;;40.90;21.98;;;;;;;2.29;86.67;103179.78;3606943;39;20315;-68
2024/01/12 02:02:19;;;;;;;40.63;21.98;;;;;;;2.29;87.00;103184.19;3606926;39;20124;-68
2024/01/12 02:04:44;;;;;;;38.60;22.10;;;;;;;2.26;86.82;103177.09;3604827;39;20063;-68
2024/01/12 02:07:10;;;;;;;40.80;22.67;;;;;;;2.23;86.46;103168.19;3608875;39;20071;-68
2024/01/12 02:09:37;;;;;;;39.35;22.13;;;;;;;2.22;86.94;103167.31;3609960;39;20049;-68
2024/01/12 02:12:04;;;;;;;40.65;21.98;;;;;;;2.25;87.60;103169.09;3610889;39;20043;-70
2024/01/12 02:14:30;;;;;;;36.78;20.33;;;;;;;2.26;86.69;103160.28;3608570;39;20047;-68
2024/01/12 02:16:56;;;;;;;41.70;21.83;;;;;;;2.28;87.64;103161.16;3607026;39;20059;-68
2024/01/12 02:19:22;;;;;;;41.50;22.58;;;;;;;2.26;87.51;103150.53;3610082;39;20055;-68
2024/01/12 02:21:48;;;;;;;39.35;21.33;;;;;;;2.27;87.69;103152.31;3610479;39;20075;-68
2024/01/12 02:24:13;;;;;;;41.22;22.50;;;;;;;2.25;86.87;103150.50;3611316;39;20124;-67
2024/01/12 02:26:39;;;;;;;39.95;22.90;;;;;;;2.27;88.09;103147.00;3607036;39;20054;-68
2024/01/12 02:29:05;;;;;;;42.17;21.45;;;;;;;2.26;86.95;103162.94;3609056;39;20051;-68
2024/01/12 02:31:31;;;;;;;36.15;20.63;;;;;;;2.29;87.81;103165.63;3608204;39;20051;-67
2024/01/12 02:33:57;;;;;;;44.13;22.83;;;;;;;2.14;87.62;103139.81;3608981;39;20087;-67
2024/01/12 02:36:26;;;;;;;39.63;21.38;;;;;;;2.26;87.69;103160.28;3612582;39;20062;-68
2024/01/12 02:38:52;;;;;;;37.83;21.90;;;;;;;2.28;86.94;103162.06;3610577;39;20104;-67
2024/01/12 02:41:18;;;;;;;41.22;21.98;;;;;;;2.25;86.95;103153.16;3608468;39;20076;-67
2024/01/12 02:43:44;;;;;;;39.55;21.40;;;;;;;2.08;87.61;103130.00;3607948;39;20115;-67
2024/01/12 02:46:10;;;;;;;38.72;21.73;;;;;;;2.29;86.60;103166.50;3606967;39;20081;-68
2024/01/12 02:48:36;;;;;;;42.67;22.48;;;;;;;2.31;86.96;103163.84;3606027;39;20392;-68
2024/01/12 02:51:01;;;;;;;37.38;21.30;;;;;;;2.32;86.79;103166.53;3610503;39;20065;-68
2024/01/12 02:53:27;;;;;;;38.28;22.45;;;;;;;2.32;86.33;103157.69;3608027;39;20096;-68
2024/01/12 02:55:53;;;;;;;40.05;22.13;;;;;;;2.22;86.51;103130.16;3605673;39;20059;-68
2024/01/12 02:58:18;;;;;;;41.28;22.58;;;;;;;2.32;87.55;103147.94;3607151;39;20050;-68
2024/01/12 03:00:44;;;;;;;41.25;22.25;;;;;;;2.33;86.30;103135.56;3605828;39;20438;-68
2024/01/12 03:03:10;;;;;;;41.65;22.52;;;;;;;2.33;86.64;103132.91;3607069;39;20070;-67
2024/01/12 03:05:35;;;;;;;40.90;21.98;;;;;;;2.34;86.54;103134.69;3609528;39;20051;-69
2024/01/12 03:08:01;;;;;;;40.65;22.92;;;;;;;2.31;86.33;103127.56;3608183;39;20067;-68
2024/01/12 03:10:27;;;;;;;38.72;22.83;;;;;;;2.31;86.54;103139.97;3611494;39;20051;-68
2024/01/12 03:12:52;;;;;;;42.75;22.77;;;;;;;2.30;86.86;103131.13;3607199;39;20066;-68
2024/01/12 03:15:19;;;;;;;37.95;22.20;;;;;;;2.18;87.43;103109.75;3608384;39;20089;-69
2024/01/12 03:17:44;;;;;;;46.55;23.42;;;;;;;2.15;87.48;103104.44;3606065;39;20103;-69
2024/01/12 03:20:10;;;;;;;40.65;21.95;;;;;;;2.26;87.27;103128.44;3611575;39;20051;-68
2024/01/12 03:22:36;;;;;;;39.55;22.83;;;;;;;2.33;87.27;103130.25;3600963;39;20055;-68
2024/01/12 03:25:02;;;;;;;44.45;25.35;;;;;;;2.33;86.72;103135.56;3609327;39;20054;-67
2024/01/12 03:27:28;;;;;;;40.92;23.50;;;;;;;2.31;87.79;103126.69;3609291;39;20043;-67
2024/01/12 03:29:54;;;;;;;36.20;22.02;;;;;;;2.00;86.93;103073.34;3609929;39;20058;-68
2024/01/12 03:32:23;;;;;;;40.83;22.90;;;;;;;2.35;86.77;103127.59;3608575;39;20280;-68
2024/01/12 03:34:49;;;;;;;40.80;22.85;;;;;;;2.33;87.26;103124.94;3603113;39;20929;-68
2024/01/12 03:37:15;;;;;;;40.65;23.00;;;;;;;2.36;87.35;103124.97;3609557;39;20035;-67
2024/01/12 03:39:41;;;;;;;39.55;22.70;;;;;;;2.21;87.20;103100.94;3610148;39;20063;-67
2024/01/12 03:42:08;;;;;;;40.03;22.23;;;;;;;2.35;86.91;103127.59;3611178;39;20087;-67
2024/01/12 03:44:33;;;;;;;39.60;21.25;;;;;;;2.35;86.97;103133.84;3612717;39;20043;-67
2024/01/12 03:46:59;;;;;;;41.15;21.83;;;;;;;2.37;87.38;103125.88;3614470;39;20069;-68
2024/01/12 03:49:25;;;;;;;39.03;22.58;;;;;;;2.28;87.04;103116.03;3610917;39;20059;-67
2024/01/12 03:51:57;;;;;;;42.88;22.58;;;;;;;2.35;86.83;103127.59;3608392;39;20548;-67
2024/01/12 03:54:27;;;;;;;44.25;24.33;;;;;;;2.35;87.40;103109.94;3610372;39;20318;-68
2024/01/12 03:56:52;;;;;;;41.35;23.25;;;;;;;2.36;87.07;103117.03;3610146;39;20474;-67
2024/01/12 03:59:19;;;;;;;51.92;24.58;;;;;;;2.39;87.18;103118.81;3607226;39;20113;-68
2024/01/12 04:01:46;;;;;;;39.42;22.85;;;;;;;2.41;87.75;103123.28;3608739;39;20043;-68
2024/01/12 04:04:12;;;;;;;39.40;23.48;;;;;;;2.31;86.95;103102.81;3609263;39;20055;-67
2024/01/12 04:06:40;;;;;;;43.08;23.13;;;;;;;2.43;87.13;103110.88;3609251;39;21584;-68
2024/01/12 04:09:09;;;;;;;41.58;23.15;;;;;;;2.45;87.11;103105.59;3611548;39;20136;-67
2024/01/12 04:11:36;;;;;;;36.60;22.02;;;;;;;2.43;86.76;103110.88;3608171;39;20102;-68
2024/01/12 04:14:02;;;;;;;38.55;22.52;;;;;;;2.44;86.72;103118.00;3607624;39;20106;-68
2024/01/12 04:16:28;;;;;;;43.83;23.40;;;;;;;2.40;87.57;103105.53;3610825;39;20061;-69
2024/01/12 04:18:53;;;;;;;40.90;23.35;;;;;;;2.41;86.76;103114.38;3610220;39;20066;-68
2024/01/12 04:21:19;;;;;;;39.35;21.55;;;;;;;2.42;86.92;103111.78;3611144;39;20082;-68
2024/01/12 04:23:44;;;;;;;39.45;21.90;;;;;;;2.44;87.37;103107.38;3611660;39;20058;-68
2024/01/12 04:26:10;;;;;;;41.00;21.77;;;;;;;2.45;87.28;103113.56;3611281;39;20059;-68
2024/01/12 04:28:35;;;;;;;40.13;23.13;;;;;;;2.44;86.88;103114.41;3610819;39;20062;-68
2024/01/12 04:31:03;;;;;;;37.72;21.67;;;;;;;2.17;87.17;103064.66;3609560;39;20319;-68
2024/01/12 04:33:30;;;;;;;38.92;21.58;;;;;;;2.43;86.99;103110.00;3601558;39;20095;-68
2024/01/12 04:35:57;;;;;;;40.78;22.48;;;;;;;2.46;86.96;103121.53;3608522;39;20086;-68
2024/01/12 04:38:25;;;;;;;39.45;22.95;;;;;;;2.32;87.16;103094.00;3608796;39;20054;-69
2024/01/12 04:40:51;;;;;;;39.85;22.17;;;;;;;2.47;87.28;103123.28;3609596;39;20059;-68
2024/01/12 04:43:17;;;;;;;38.95;22.02;;;;;;;2.25;87.40;103089.47;3608841;39;20315;-68
2024/01/12 04:45:43;;;;;;;39.17;22.25;;;;;;;2.44;87.31;103118.00;3607557;39;20115;-68
2024/01/12 04:48:09;;;;;;;38.85;22.02;;;;;;;2.47;86.64;103117.09;3608032;39;20067;-69
2024/01/12 04:50:34;;;;;;;42.83;23.80;;;;;;;2.44;87.10;103118.00;3608392;39;20051;-68
2024/01/12 04:53:00;;;;;;;40.10;22.65;;;;;;;2.51;87.24;103133.09;3609267;39;20673;-68
2024/01/12 04:55:26;;;;;;;34.25;21.25;;;;;;;2.51;87.39;103125.13;3602892;39;20053;-68
2024/01/12 04:57:51;;;;;;;39.88;22.55;;;;;;;2.48;87.56;103130.41;3610546;39;20117;-68
2024/01/12 05:00:19;;;;;;;41.72;22.63;;;;;;;2.31;87.00;103094.84;3609588;39;20247;-68
2024/01/12 05:02:44;;;;;;;38.58;23.38;;;;;;;2.51;87.92;103117.16;3608901;39;20061;-68
2024/01/12 05:05:10;;;;;;;39.90;22.02;;;;;;;2.50;87.93;103111.81;3609685;39;20059;-67
2024/01/12 05:07:36;;;;;;;39.33;21.92;;;;;;;2.52;87.70;103116.28;3610501;39;20099;-68
2024/01/12 05:10:03;;;;;;;38.42;21.88;;;;;;;2.47;86.75;103112.69;3611780;39;20136;-69
2024/01/12 05:12:30;;;;;;;37.65;21.10;;;;;;;2.54;86.35;103121.63;3612004;39;20045;-67
2024/01/12 05:14:55;;;;;;;38.90;21.60;;;;;;;2.56;86.75;103112.75;3610114;39;20039;-67
2024/01/12 05:17:23;;;;;;;36.85;20.08;;;;;;;2.53;86.78;103103.88;3598317;39;20043;-68
2024/01/12 05:19:49;;;;;;;38.05;21.75;;;;;;;2.55;86.93;103104.78;3608394;39;20047;-68
2024/01/12 05:22:14;;;;;;;39.78;21.67;;;;;;;2.56;87.36;103093.28;3611739;39;20078;-68
2024/01/12 05:24:40;;;;;;;39.58;26.85;;;;;;;2.55;87.64;103100.38;3611476;39;20417;-67
2024/01/12 05:27:07;;;;;;;42.78;26.85;;;;;;;2.58;86.56;103107.47;3610549;39;20430;-68
2024/01/12 05:29:34;;;;;;;43.67;30.77;;;;;;;2.59;86.68;103111.03;3610018;39;20054;-68
2024/01/12 05:32:01;;;;;;;42.38;27.25;;;;;;;2.49;87.47;103092.34;3608918;39;20082;-68
2024/01/12 05:34:27;;;;;;;42.00;25.55;;;;;;;2.56;86.84;103104.78;3609998;39;20057;-68
2024/01/12 05:36:53;;;;;;;37.75;22.30;;;;;;;2.56;87.15;103102.13;3608588;39;20078;-68
2024/01/12 05:39:19;;;;;;;39.40;22.70;;;;;;;2.55;87.77;103103.03;3609382;39;20046;-68
2024/01/12 05:41:44;;;;;;;46.58;21.75;;;;;;;2.58;87.97;103101.28;3609379;39;20058;-68
2024/01/12 05:44:11;;;;;;;36.20;20.48;;;;;;;2.60;87.32;103104.81;3611326;39;20066;-68
2024/01/12 05:46:40;;;;;;;36.78;21.17;;;;;;;2.38;87.34;103067.50;3612625;39;20163;-66
2024/01/12 05:49:06;;;;;;;39.42;20.45;;;;;;;2.64;86.34;103107.53;3613166;39;20412;-66
2024/01/12 05:51:31;;;;;;;35.65;20.63;;;;;;;2.39;86.52;103065.75;3612914;39;20074;-68
2024/01/12 05:53:57;;;;;;;36.45;20.35;;;;;;;2.66;87.07;103107.53;3608569;39;20077;-68
2024/01/12 05:56:23;;;;;;;36.00;20.40;;;;;;;2.64;87.14;103115.50;3607712;39;20051;-68
2024/01/12 05:58:48;;;;;;;38.03;19.80;;;;;;;2.64;86.94;103115.50;3610591;39;20060;-68
2024/01/12 06:01:14;;;;;;;33.35;18.95;;;;;;;2.64;87.73;103118.16;3610599;39;20477;-68
2024/01/12 06:03:40;;;;;;;34.50;18.35;;;;;;;2.64;86.87;103118.16;3608067;39;20055;-68
2024/01/12 06:06:05;;;;;;;37.03;18.45;;;;;;;2.55;86.78;103100.38;3607128;39;20067;-68
2024/01/12 06:08:31;;;;;;;29.30;17.52;;;;;;;2.70;87.58;103125.28;3609702;39;20057;-68
2024/01/12 06:10:57;;;;;;;33.05;17.08;;;;;;;2.73;86.51;103130.63;3608795;39;20046;-67
2024/01/12 06:13:23;;;;;;;32.53;16.23;;;;;;;2.71;86.95;103124.41;3612474;39;20050;-68
2024/01/12 06:15:48;;;;;;;35.58;16.65;;;;;;;2.69;86.64;103119.06;3610726;39;20292;-68
2024/01/12 06:18:14;;;;;;;34.15;16.42;;;;;;;2.73;86.50;103117.34;3609179;39;20043;-68
2024/01/12 06:20:40;;;;;;;37.65;15.98;;;;;;;2.77;86.52;103121.78;3608405;39;20047;-69
2024/01/12 06:23:05;;;;;;;33.10;14.85;;;;;;;2.73;86.23;103109.38;3608820;39;20307;-69
2024/01/12 06:25:36;;;;;;;32.60;13.93;;;;;;;2.75;86.46;103111.13;3608200;39;20946;-69
2024/01/12 06:28:03;;;;;;;32.70;13.57;;;;;;;2.84;85.27;103139.53;3607221;39;20120;-69
2024/01/12 06:30:28;;;;;;;31.33;15.10;;;;;;;2.86;86.21;103128.94;3610326;39;20055;-69
2024/01/12 06:32:54;;;;;;;25.05;14.10;;;;;;;2.88;85.60;103132.47;3611405;39;20057;-69
2024/01/12 06:35:19;;;;;;;28.85;14.27;;;;;;;2.89;85.26;103132.50;3608570;39;20307;-70
2024/01/12 06:37:45;;;;;;;26.67;13.15;;;;;;;2.94;85.02;103145.81;3608139;39;20055;-68
2024/01/12 06:40:11;;;;;;;29.45;14.52;;;;;;;2.95;85.60;103137.88;3609222;39;20055;-70
2024/01/12 06:42:37;;;;;;;25.27;13.10;;;;;;;2.66;85.66;103092.47;3609878;39;20458;-68
2024/01/12 06:45:07;;;;;;;28.85;14.15;;;;;;;2.87;84.94;103120.97;3607801;39;20070;-69
2024/01/12 06:47:34;;;;;;;24.77;13.32;;;;;;;2.95;84.75;103142.25;3607652;39;20063;-69
2024/01/12 06:50:00;;;;;;;32.72;13.60;;;;;;;2.96;85.32;103144.94;3608808;39;20417;-69
2024/01/12 06:52:26;;;;;;;24.90;12.38;;;;;;;2.82;84.64;103114.72;3610437;39;20050;-69
2024/01/12 06:54:52;;;;;;;24.75;13.13;;;;;;;2.96;84.76;103142.28;3600997;39;20460;-69
2024/01/12 06:57:17;;;;;;;28.65;13.70;;;;;;;2.99;84.36;103149.41;3608031;39;20112;-69
2024/01/12 06:59:44;;;;;;;27.15;13.52;;;;;;;2.85;84.58;103127.16;3607497;39;20125;-68
2024/01/12 07:02:09;;;;;;;26.23;12.50;;;;;;;2.96;84.47;103158.22;3609911;39;20416;-68
2024/01/12 07:04:35;;;;;;;29.67;12.40;;;;;;;2.95;84.57;103155.53;3606912;39;20161;-69
2024/01/12 07:07:02;;;;;;;27.17;12.38;;;;;;;2.81;84.45;103123.56;3608034;39;20039;-68
2024/01/12 07:09:27;;;;;;;25.23;11.85;;;;;;;2.99;84.07;103152.06;3609072;39;20065;-69
2024/01/12 07:11:53;;;;;;;28.77;13.00;;;;;;;3.02;84.41;103150.31;3608622;39;20090;-68
2024/01/12 07:14:19;;;;;;;28.27;12.82;;;;;;;3.02;85.21;103138.78;3611409;39;20054;-69
2024/01/12 07:16:45;;;;;;;27.98;13.18;;;;;;;3.01;85.33;103142.31;3609955;39;20058;-69
2024/01/12 07:19:11;;;;;;;31.90;14.25;;;;;;;3.02;84.23;103146.75;3608653;39;20066;-69
2024/01/12 07:21:36;;;;;;;32.40;14.43;;;;;;;3.01;83.59;103148.53;3609559;39;20058;-69
2024/01/12 07:24:03;;;;;;;29.13;13.73;;;;;;;2.98;84.55;103131.66;3608806;39;20050;-68
2024/01/12 07:26:28;;;;;;;28.85;12.85;;;;;;;2.76;84.88;103098.78;3609960;39;20161;-68
2024/01/12 07:28:54;;;;;;;27.35;13.43;;;;;;;2.88;85.02;103119.19;3609914;39;20055;-68
2024/01/12 07:31:20;;;;;;;33.47;13.55;;;;;;;2.99;84.08;103121.06;3609703;39;20047;-69
2024/01/12 07:33:46;;;;;;;31.52;13.65;;;;;;;2.98;84.96;103119.28;3607727;39;20051;-67
2024/01/12 07:36:11;;;;;;;27.85;13.88;;;;;;;2.97;84.70;103125.47;3607399;39;20051;-69
2024/01/12 07:38:37;;;;;;;22.98;12.30;;;;;;;3.00;85.41;103127.25;3608043;39;20363;-69
2024/01/12 07:41:03;;;;;;;26.63;13.25;;;;;;;3.01;85.72;103127.28;3608244;39;20081;-69
2024/01/12 07:43:30;;;;;;;28.23;13.80;;;;;;;3.00;85.75;103124.59;3609414;39;20055;-69
2024/01/12 07:45:57;;;;;;;25.63;12.85;;;;;;;3.01;85.39;103121.97;3607587;39;20049;-69
2024/01/12 07:48:23;;;;;;;28.48;13.65;;;;;;;3.04;85.31;103121.06;3608898;39;20051;-69
2024/01/12 07:50:49;;;;;;;25.45;13.73;;;;;;;3.05;85.74;103132.63;3608751;39;20078;-69
2024/01/12 07:53:15;;;;;;;32.55;13.85;;;;;;;3.03;85.22;103128.16;3607999;39;20381;-69
2024/01/12 07:55:40;;;;;;;25.17;13.20;;;;;;;3.02;85.26;103129.06;3609234;39;20046;-69
2024/01/12 07:58:06;;;;;;;26.77;12.98;;;;;;;3.05;85.11;103127.31;3596819;39;20059;-69
2024/01/12 08:00:32;;;;;;;26.73;13.38;;;;;;;3.05;85.27;103111.38;3608281;39;20205;-69
2024/01/12 08:02:58;;;;;;;28.65;13.52;;;;;;;3.08;85.26;103120.25;3608912;39;20042;-69
2024/01/12 08:05:23;;;;;;;25.98;12.98;;;;;;;3.07;85.25;103117.56;3607674;39;20142;-70
2024/01/12 08:07:50;;;;;;;25.70;13.13;;;;;;;3.09;85.80;103115.81;3606412;39;20071;-69
2024/01/12 08:10:17;;;;;;;33.00;14.23;;;;;;;2.77;85.36;103058.03;3608394;39;20050;-69
2024/01/12 08:12:45;;;;;;;25.27;13.07;;;;;;;2.88;85.60;103082.91;3608967;39;20054;-69
2024/01/12 08:15:11;;;;;;;30.50;13.98;;;;;;;3.10;85.52;103130.84;3609687;39;20567;-69
2024/01/12 08:17:41;;;;;;;31.30;15.32;;;;;;;3.12;86.33;103130.00;3609537;39;20047;-68
2024/01/12 08:20:08;;;;;;;30.77;15.15;;;;;;;3.15;86.28;103127.34;3611176;39;20069;-69
2024/01/12 08:22:34;;;;;;;30.67;17.08;;;;;;;3.17;85.13;103127.34;3610514;39;20047;-69
2024/01/12 08:25:00;;;;;;;34.40;16.60;;;;;;;3.18;85.11;103127.38;3609545;39;20115;-69
2024/01/12 08:27:26;;;;;;;30.70;15.85;;;;;;;3.21;85.42;103129.16;3611035;39;20091;-69
2024/01/12 08:29:52;;;;;;;33.00;17.20;;;;;;;3.18;85.44;103118.53;3609490;39;20050;-69
2024/01/12 08:32:18;;;;;;;37.00;17.02;;;;;;;3.26;85.26;103138.91;3609167;39;20106;-70
2024/01/12 08:34:46;;;;;;;28.75;15.35;;;;;;;3.24;85.16;103129.19;3611708;39;20120;-70
2024/01/12 08:37:12;;;;;;;27.65;14.85;;;;;;;3.26;85.06;103128.28;3612710;39;20104;-70
2024/01/12 08:39:37;;;;;;;30.52;14.40;;;;;;;3.28;85.70;103125.66;3611691;39;20059;-69
2024/01/12 08:42:03;;;;;;;28.83;13.07;;;;;;;2.84;85.36;103046.56;3610835;39;20061;-70
2024/01/12 08:44:29;;;;;;;27.77;12.48;;;;;;;2.86;84.54;103055.47;3609753;39;20063;-69
2024/01/12 08:46:54;;;;;;;24.63;12.10;;;;;;;3.36;85.47;103141.63;3610419;39;20390;-69
2024/01/12 08:49:21;;;;;;;30.58;13.80;;;;;;;3.34;85.34;103136.31;3610309;39;20052;-69
2024/01/12 08:51:48;;;;;;;26.98;12.52;;;;;;;3.44;85.19;103138.16;3613927;39;20036;-69
2024/01/12 08:54:14;;;;;;;22.08;12.48;;;;;;;3.37;84.97;103125.72;3604413;39;20075;-68
2024/01/12 08:56:41;;;;;;;30.15;11.93;;;;;;;3.48;85.05;103139.94;3614820;39;20055;-69
2024/01/12 08:59:08;;;;;;;25.75;11.55;;;;;;;3.55;84.73;103134.63;3613789;39;20082;-69
2024/01/12 09:01:34;;;;;;;28.25;12.32;;;;;;;3.55;84.39;103137.31;3614159;39;20061;-69
2024/01/12 09:04:02;;;;;;;24.08;12.30;;;;;;;3.59;84.46;103132.03;3612139;39;20095;-69
2024/01/12 09:06:29;;;;;;;22.02;11.48;;;;;;;3.58;85.01;103135.53;3609438;39;20044;-69
2024/01/12 09:08:57;;;;;;;19.23;11.77;;;;;;;3.65;84.87;103140.03;3608827;39;20062;-68
2024/01/12 09:11:23;;;;;;;27.80;12.50;;;;;;;3.67;83.91;103146.22;3610321;39;20047;-68
2024/01/12 09:13:49;;;;;;;26.63;13.07;;;;;;;3.60;84.55;103122.25;3612276;39;20065;-70
2024/01/12 09:16:15;;;;;;;21.92;11.98;;;;;;;3.66;84.13;103128.50;3611001;39;20083;-69
2024/01/12 09:18:43;;;;;;;24.10;13.32;;;;;;;3.69;83.71;103139.16;3607545;39;20048;-69
2024/01/12 09:21:14;;;;;;;27.85;14.05;;;;;;;3.77;84.67;103136.50;3608029;39;20066;-69
2024/01/12 09:23:41;;;;;;;26.23;13.45;;;;;;;3.79;83.91;103145.38;3610463;39;20113;-70
2024/01/12 09:26:08;;;;;;;19.88;11.63;;;;;;;3.84;84.06;103138.31;3608370;39;20061;-69
2024/01/12 09:28:34;;;;;;;27.98;11.15;;;;;;;3.88;83.61;103142.75;3609772;39;20055;-69
2024/01/12 09:30:59;;;;;;;23.40;11.18;;;;;;;3.90;82.52;103142.75;3610546;39;20050;-69
2024/01/12 09:33:25;;;;;;;26.27;12.07;;;;;;;3.84;82.87;103118.81;3609145;39;20403;-68
2024/01/12 09:35:51;;;;;;;27.40;11.13;;;;;;;3.93;82.63;103127.72;3609054;39;20074;-70
2024/01/12 09:38:16;;;;;;;24.92;11.52;;;;;;;3.98;82.35;103138.34;3609960;39;20051;-69
2024/01/12 09:40:42;;;;;;;23.63;11.00;;;;;;;4.00;82.19;103138.38;3608150;39;20058;-69
2024/01/12 09:43:14;;;;;;;25.42;11.35;;;;;;;4.03;81.75;103143.69;3609368;39;20346;-68
2024/01/12 09:45:44;;;;;;;24.25;10.93;;;;;;;4.05;81.09;103147.25;3609150;39;20394;-69
2024/01/12 09:48:13;;;;;;;24.85;11.23;;;;;;;4.07;81.09;103141.03;3607559;39;20071;-68
2024/01/12 09:50:41;;;;;;;23.75;10.85;;;;;;;4.09;80.61;103135.72;3609270;39;20061;-69
2024/01/12 09:53:07;;;;;;;29.80;11.82;;;;;;;4.09;79.84;103139.28;3611536;39;20532;-69
2024/01/12 09:55:33;;;;;;;24.38;11.35;;;;;;;4.11;80.81;103132.16;3614617;39;20057;-70
2024/01/12 09:58:01;;;;;;;19.85;10.77;;;;;;;4.12;80.42;103133.97;3608867;39;20050;-69
2024/01/12 10:00:31;;;;;;;26.20;10.63;;;;;;;4.12;79.85;103135.72;3613462;39;20083;-69
2024/01/12 10:02:58;;;;;;;20.90;10.75;;;;;;;4.14;80.27;103129.53;3608690;39;20363;-69
2024/01/12 10:05:25;;;;;;;22.92;10.80;;;;;;;4.15;79.60;103133.06;3608841;39;20047;-70
2024/01/12 10:07:51;;;;;;;22.80;11.13;;;;;;;4.12;79.81;103131.31;3610122;39;20069;-69
2024/01/12 10:10:16;;;;;;;28.00;10.77;;;;;;;4.04;79.86;103102.91;3610140;39;20055;-70
2024/01/12 10:12:42;;;;;;;22.95;10.82;;;;;;;4.16;80.16;103118.88;3610833;39;20062;-69
2024/01/12 10:15:09;;;;;;;19.30;10.38;;;;;;;4.22;79.66;103126.88;3597945;39;20070;-69
2024/01/12 10:17:35;;;;;;;25.27;11.40;;;;;;;4.25;79.89;103128.66;3608759;39;20087;-69
2024/01/12 10:20:01;;;;;;;24.27;11.75;;;;;;;4.08;79.07;103110.88;3609303;39;20108;-69
2024/01/12 10:22:27;;;;;;;22.52;10.20;;;;;;;4.29;79.65;103131.31;3609835;39;20048;-70
2024/01/12 10:25:04;;;;;;;29.95;12.75;;;;;;;4.28;79.66;103134.88;3609171;39;20063;-69
2024/01/12 10:27:31;;;;;;;27.85;11.63;;;;;;;4.35;80.14;103141.09;3608503;39;20043;-69
2024/01/12 10:29:57;;;;;;;27.05;11.40;;;;;;;4.14;79.70;103088.72;3608593;39;20121;-70
2024/01/12 10:32:25;;;;;;;26.33;11.02;;;;;;;4.38;78.04;103131.34;3609009;39;20051;-70
2024/01/12 10:34:53;;;;;;;22.08;10.35;;;;;;;4.43;79.04;103134.00;3607940;39;20067;-69
2024/01/12 10:37:21;;;;;;;22.50;11.15;;;;;;;4.43;78.25;103134.88;3609476;39;20121;-69
2024/01/12 10:39:51;;;;;;;18.30;9.65;;;;;;;4.22;78.28;103092.28;3609264;39;20051;-68
2024/01/12 10:42:20;;;;;;;17.30;10.15;;;;;;;4.41;78.15;103109.16;3607999;39;20054;-69
2024/01/12 10:44:52;;;;;;;26.85;10.45;;;;;;;4.45;78.61;103110.03;3608290;39;20054;-69
2024/01/12 10:47:21;;;;;;;24.27;10.50;;;;;;;4.50;78.14;103110.91;3609361;39;20133;-69
2024/01/12 10:50:06;;;;;;;22.48;9.88;;;;;;;4.52;77.73;103110.03;3610243;39;20054;-68
2024/01/12 10:53:14;;;;;;;22.85;9.73;;;;;;;4.48;76.97;103110.06;3609361;39;20058;-69
2024/01/12 10:55:52;;;;;;;21.23;9.90;;;;;;;4.48;77.80;103112.72;3613061;39;20047;-69
2024/01/12 10:58:18;;;;;;;21.13;9.88;;;;;;;4.48;77.76;103105.59;3612396;39;20071;-69
2024/01/12 11:00:45;;;;;;;28.80;10.27;;;;;;;4.47;77.93;103102.91;3614058;39;20046;-69
2024/01/12 11:03:15;;;;;;;24.48;10.30;;;;;;;4.46;77.47;103112.69;3612238;39;20248;-69
2024/01/12 11:05:44;;;;;;;21.70;10.27;;;;;;;4.26;77.54;103075.41;3610556;39;20067;-69
2024/01/12 11:08:13;;;;;;;22.55;10.98;;;;;;;4.46;77.54;103109.16;3601075;39;20303;-69
2024/01/12 11:10:49;;;;;;;19.33;10.02;;;;;;;4.48;78.28;103097.63;3610339;39;20065;-69
2024/01/12 11:13:17;;;;;;;21.77;10.48;;;;;;;4.28;77.98;103064.75;3607389;39;21235;-70